createdAt,value
2023-03-29T00:04:32.601Z,101658.25
2023-03-29T00:09:23.825Z,101658.78
2023-03-29T00:14:19.683Z,101644.22
2023-03-29T00:19:10.424Z,101643.53
2023-03-29T00:24:08.147Z,101636.84
2023-03-29T00:28:59.211Z,101635.13
2023-03-29T00:33:54.482Z,101620.59
2023-03-29T00:38:45.672Z,101622.38
2023-03-29T00:43:51.954Z,101624.09
2023-03-29T00:48:43.164Z,101611.94
2023-03-29T00:53:38.476Z,101601.81
2023-03-29T00:58:31.877Z,101597.47
2023-03-29T01:03:25.627Z,101601.72
2023-03-29T01:08:18.903Z,101597.47
2023-03-29T01:13:15.012Z,101587.91
2023-03-29T01:18:09.940Z,101593.88
2023-03-29T01:23:10.701Z,101584.66
2023-03-29T01:28:06.032Z,101576.09
2023-03-29T01:33:00.892Z,101562.34
2023-03-29T01:37:57.499Z,101545.13
2023-03-29T01:42:52.845Z,101546.06
2023-03-29T01:47:49.614Z,101549.41
2023-03-29T01:52:43.431Z,101543.38
2023-03-29T01:57:40.806Z,101541.66
2023-03-29T02:02:42.244Z,101540.00
2023-03-29T02:07:38.504Z,101535.81
2023-03-29T02:12:28.576Z,101520.31
2023-03-29T02:17:20.398Z,101521.19
2023-03-29T02:22:13.232Z,101527.34
2023-03-29T02:27:08.137Z,101517.78
2023-03-29T02:32:02.274Z,101504.72
2023-03-29T02:36:57.335Z,101495.25
2023-03-29T02:41:53.660Z,101498.69
2023-03-29T02:46:47.112Z,101500.50
2023-03-29T02:51:42.165Z,101491.03
2023-03-29T02:56:33.709Z,101491.88
2023-03-29T03:01:25.304Z,101484.22
2023-03-29T03:06:21.465Z,101478.25
2023-03-29T03:11:15.964Z,101486.03
2023-03-29T03:16:09.945Z,101478.28
2023-03-29T03:21:11.092Z,101473.91
2023-03-29T03:26:09.260Z,101467.03
2023-03-29T03:31:03.652Z,101472.22
2023-03-29T03:36:16.291Z,101471.44
2023-03-29T03:41:11.593Z,101457.66
2023-03-29T03:46:03.755Z,101456.81
2023-03-29T03:50:56.694Z,101454.22
2023-03-29T03:55:54.660Z,101461.03
2023-03-29T04:00:54.015Z,101466.19
2023-03-29T04:06:00.356Z,101456.69
2023-03-29T04:11:02.864Z,101454.13
2023-03-29T04:16:07.809Z,101453.44
2023-03-29T04:20:58.497Z,101449.84
2023-03-29T04:25:51.985Z,101442.16
2023-03-29T04:31:15.855Z,101439.56
2023-03-29T04:36:32.944Z,101441.31
2023-03-29T04:41:29.272Z,101436.13
2023-03-29T04:46:35.408Z,101438.66
2023-03-29T04:51:48.638Z,101429.16
2023-03-29T04:56:45.791Z,101440.59
2023-03-29T05:02:11.176Z,101427.00
2023-03-29T05:07:07.008Z,101433.88
2023-03-29T05:11:59.093Z,101433.94
2023-03-29T05:16:53.268Z,101433.97
2023-03-29T05:21:48.228Z,101446.91
2023-03-29T05:26:52.381Z,101444.41
2023-03-29T05:31:43.818Z,101454.75
2023-03-29T05:36:38.017Z,101447.06
2023-03-29T05:41:41.713Z,101453.09
2023-03-29T05:46:53.787Z,101451.53
2023-03-29T05:51:51.648Z,101453.34
2023-03-29T05:56:51.458Z,101455.91
2023-03-29T06:01:44.117Z,101453.38
2023-03-29T06:06:36.455Z,101449.06
2023-03-29T06:11:32.189Z,101449.09
2023-03-29T06:16:48.784Z,101450.03
2023-03-29T06:21:43.174Z,101442.28
2023-03-29T06:26:37.677Z,101451.00
2023-03-29T06:31:32.109Z,101442.41
2023-03-29T06:36:26.273Z,101448.47
2023-03-29T06:41:19.948Z,101456.28
2023-03-29T06:46:37.571Z,101452.88
2023-03-29T06:51:44.374Z,101452.13
2023-03-29T06:56:37.360Z,101447.00
2023-03-29T07:01:33.946Z,101467.84
2023-03-29T07:06:33.522Z,101468.75
2023-03-29T07:11:34.440Z,101479.00
2023-03-29T07:16:47.602Z,101450.38
2023-03-29T07:21:46.453Z,101481.78
2023-03-29T07:27:03.370Z,101481.94
2023-03-29T07:31:57.027Z,101488.00
2023-03-29T07:37:16.712Z,101487.31
2023-03-29T07:42:13.270Z,101489.09
2023-03-29T07:47:07.100Z,101466.72
2023-03-29T07:52:06.270Z,101472.84
2023-03-29T07:57:01.078Z,101477.28
2023-03-29T08:02:05.228Z,101467.06
2023-03-29T08:07:11.566Z,101466.34
2023-03-29T08:12:25.761Z,101473.47
2023-03-29T08:17:22.359Z,101468.63
2023-03-29T08:22:18.948Z,101473.94
2023-03-29T08:27:33.487Z,101462.78
2023-03-29T08:32:33.672Z,101455.09
2023-03-29T08:37:26.525Z,101456.84
2023-03-29T08:42:43.884Z,101464.69
2023-03-29T08:47:53.189Z,101469.09
2023-03-29T08:52:56.521Z,101461.34
2023-03-29T08:58:20.072Z,101459.63
2023-03-29T09:03:26.874Z,101461.34
2023-03-29T09:08:24.796Z,101443.13
2023-03-29T09:13:37.984Z,101446.59
2023-03-29T09:18:41.706Z,101447.34
2023-03-29T09:23:58.865Z,101458.78
2023-03-29T09:29:32.209Z,101464.84
2023-03-29T09:34:39.654Z,101451.88
2023-03-29T09:39:39.876Z,101457.09
2023-03-29T09:44:41.929Z,101457.97
2023-03-29T09:49:47.617Z,101479.59
2023-03-29T09:54:41.049Z,101475.28
2023-03-29T10:00:17.490Z,101464.88
2023-03-29T10:05:26.854Z,101465.75
2023-03-29T10:10:35.552Z,101459.69
2023-03-29T10:15:41.475Z,101456.22
2023-03-29T10:20:38.854Z,101447.53
2023-03-29T10:25:34.348Z,101444.09
2023-03-29T10:30:29.823Z,101439.72
2023-03-29T10:35:29.758Z,101397.31
2023-03-29T10:40:41.948Z,101417.22
2023-03-29T10:45:49.907Z,101370.47
2023-03-29T10:50:51.246Z,101394.69
2023-03-29T10:56:10.678Z,101385.13
2023-03-29T11:01:25.250Z,101390.19
2023-03-29T11:06:33.749Z,101400.41
2023-03-29T11:12:08.548Z,101415.06
2023-03-29T11:17:23.934Z,101411.53
2023-03-29T11:22:26.641Z,101429.84
2023-03-29T11:27:37.353Z,101401.41
2023-03-29T11:32:40.795Z,101444.78
2023-03-29T11:37:43.540Z,101420.50
2023-03-29T11:42:53.988Z,101424.88
2023-03-29T11:47:48.183Z,101405.81
2023-03-29T11:52:45.039Z,101415.31
2023-03-29T11:57:46.585Z,101397.94
2023-03-29T12:02:44.158Z,101407.38
2023-03-29T12:07:52.696Z,101387.19
2023-03-29T12:12:55.453Z,101372.34
2023-03-29T12:17:58.474Z,101376.53
2023-03-29T12:22:53.086Z,101365.81
2023-03-29T12:27:57.838Z,101369.94
2023-03-29T12:33:08.848Z,101354.00
2023-03-29T12:38:27.091Z,101348.50
2023-03-29T12:44:00.117Z,101327.44
2023-03-29T12:49:12.196Z,101322.81
2023-03-29T12:54:20.782Z,101318.19
2023-03-29T12:59:32.141Z,101316.41
2023-03-29T13:04:43.402Z,101312.59
2023-03-29T13:09:39.207Z,101289.03
2023-03-29T13:14:44.618Z,101287.03
2023-03-29T13:19:48.320Z,101279.13
2023-03-29T13:24:54.741Z,101273.66
2023-03-29T13:30:24.949Z,101275.41
2023-03-29T13:35:29.215Z,101263.81
2023-03-29T13:40:47.342Z,101267.50
2023-03-29T13:45:46.204Z,101256.88
2023-03-29T13:50:45.672Z,101255.19
2023-03-29T13:55:51.590Z,101257.00
2023-03-29T14:00:52.969Z,101239.56
2023-03-29T14:05:50.295Z,101234.28
2023-03-29T14:10:45.720Z,101218.47
2023-03-29T14:15:52.348Z,101211.09
2023-03-29T14:20:49.828Z,101204.66
2023-03-29T14:25:43.575Z,101206.38
2023-03-29T14:30:34.968Z,101198.25
2023-03-29T14:35:33.849Z,101176.41
2023-03-29T14:40:29.944Z,101165.84
2023-03-29T14:45:26.841Z,101156.81
2023-03-29T14:50:30.400Z,101146.03
2023-03-29T14:55:24.490Z,101150.31
2023-03-29T15:00:30.383Z,101155.75
2023-03-29T15:05:42.789Z,101150.72
2023-03-29T15:10:43.614Z,101150.97
2023-03-29T15:15:46.437Z,101151.03
2023-03-29T15:20:43.097Z,101141.88
2023-03-29T15:25:44.255Z,101127.50
2023-03-29T15:30:42.277Z,101122.69
2023-03-29T15:35:33.199Z,101111.44
2023-03-29T15:40:41.585Z,101099.41
2023-03-29T15:45:34.498Z,101095.00
2023-03-29T15:50:28.604Z,101076.81
2023-03-29T15:55:20.187Z,101065.59
2023-03-29T16:00:21.594Z,101050.75
2023-03-29T16:05:15.551Z,101045.41
2023-03-29T16:10:12.909Z,101030.75
2023-03-29T16:15:24.218Z,101029.97
2023-03-29T16:20:24.094Z,101020.34
2023-03-29T16:25:18.396Z,101024.84
2023-03-29T16:30:17.467Z,101025.66
2023-03-29T16:35:29.279Z,100986.75
2023-03-29T16:40:25.484Z,100998.88
2023-03-29T16:45:21.834Z,101002.34
2023-03-29T16:50:23.110Z,100986.00
2023-03-29T16:55:19.692Z,100971.25
2023-03-29T17:00:16.053Z,100980.84
2023-03-29T17:05:10.021Z,100974.81
2023-03-29T17:10:08.543Z,100956.72
2023-03-29T17:15:18.201Z,100954.91
2023-03-29T17:20:18.823Z,100948.06
2023-03-29T17:25:15.419Z,100947.22
2023-03-29T17:30:07.737Z,100935.94
2023-03-29T17:35:12.703Z,100937.66
2023-03-29T17:40:24.233Z,100938.59
2023-03-29T17:45:16.339Z,100925.72
2023-03-29T17:50:11.177Z,100917.97
2023-03-29T17:55:03.727Z,100912.06
2023-03-29T18:00:02.231Z,100917.53
2023-03-29T18:05:02.567Z,100912.44
2023-03-29T18:10:01.261Z,100903.97
2023-03-29T18:14:59.598Z,100902.53
2023-03-29T18:19:55.353Z,100909.59
2023-03-29T18:24:46.991Z,100896.69
2023-03-29T18:29:41.161Z,100889.31
2023-03-29T18:34:39.793Z,100902.09
2023-03-29T18:39:38.382Z,100892.59
2023-03-29T18:44:41.207Z,100881.03
2023-03-29T18:49:35.056Z,100863.97
2023-03-29T18:54:27.838Z,100888.97
2023-03-29T18:59:26.490Z,100883.72
2023-03-29T19:04:17.749Z,100878.53
2023-03-29T19:09:09.959Z,100867.22
2023-03-29T19:14:10.037Z,100863.75
2023-03-29T19:19:11.716Z,100840.09
2023-03-29T19:24:08.272Z,100820.16
2023-03-29T19:29:00.383Z,100843.66
2023-03-29T19:34:01.820Z,100818.41
2023-03-29T19:38:59.833Z,100815.75
2023-03-29T19:43:51.876Z,100776.94
2023-03-29T19:48:45.402Z,100789.63
2023-03-29T19:53:38.906Z,100781.81
2023-03-29T19:58:40.343Z,100784.47
2023-03-29T20:03:34.431Z,100784.50
2023-03-29T20:08:27.865Z,100771.44
2023-03-29T20:13:35.447Z,100764.66
2023-03-29T20:18:49.528Z,100743.00
2023-03-29T20:23:42.804Z,100722.09
2023-03-29T20:28:36.910Z,100720.41
2023-03-29T20:33:34.248Z,100708.31
2023-03-29T20:38:29.181Z,100696.22
2023-03-29T20:43:28.648Z,100704.28
2023-03-29T20:48:23.764Z,100695.56
2023-03-29T20:53:21.485Z,100698.13
2023-03-29T20:58:22.473Z,100699.69
2023-03-29T21:03:15.988Z,100693.75
2023-03-29T21:08:09.305Z,100683.38
2023-03-29T21:13:04.728Z,100680.81
2023-03-29T21:18:02.415Z,100668.66
2023-03-29T21:22:55.860Z,100646.22
2023-03-29T21:27:50.909Z,100643.44
2023-03-29T21:32:45.144Z,100627.84
2023-03-29T21:37:38.530Z,100644.19
2023-03-29T21:42:32.122Z,100638.94
2023-03-29T21:47:25.128Z,100642.44
2023-03-29T21:52:23.551Z,100639.94
2023-03-29T21:57:15.853Z,100636.19
2023-03-29T22:02:07.952Z,100625.97
2023-03-29T22:06:59.965Z,100637.19
2023-03-29T22:11:57.135Z,100627.81
2023-03-29T22:16:48.775Z,100626.00
2023-03-29T22:21:40.116Z,100632.19
2023-03-29T22:26:35.727Z,100625.38
2023-03-29T22:31:33.401Z,100620.41
2023-03-29T22:36:28.047Z,100613.47
2023-03-29T22:41:22.113Z,100613.31
2023-03-29T22:46:14.962Z,100594.38
2023-03-29T22:51:17.855Z,100603.06
2023-03-29T22:56:11.854Z,100593.56
2023-03-29T23:01:02.840Z,100604.09
2023-03-29T23:05:57.659Z,100597.06
2023-03-29T23:10:56.837Z,100571.91
2023-03-29T23:15:51.770Z,100580.22
2023-03-29T23:20:47.733Z,100574.53
2023-03-29T23:25:37.781Z,100581.03
2023-03-29T23:30:36.758Z,100587.16
2023-03-29T23:35:40.128Z,100592.66
2023-03-29T23:40:36.071Z,100561.13
2023-03-29T23:45:32.258Z,100569.34
2023-03-29T23:50:24.164Z,100562.97
2023-03-29T23:55:19.666Z,100552.16
